Time;durP1;ratioP1;P1;durP2;ratioP2;P2;SDS_P1;SDS_P2;PMS_P1;PMS_P2;Temp;Humidity;BMP_temperature;BMP_pressure;BME280_temperature;BME280_humidity;BME280_pressure;Samples;Min_cycle;Max_cycle;Signal;HPM_P1;HPM_P2
2020/12/21 00:01:43;;;;;;;16.25;3.90;;;11.80;99.90;;;11.01;100.00;101216.38;4118985;28;20039;-70
2020/12/21 00:03:44;;;;;;;24.48;3.92;;;11.80;99.90;;;10.97;100.00;101204.44;4102336;28;20031;-70
2020/12/21 00:05:45;;;;;;;17.27;4.82;;;11.80;99.90;;;11.04;100.00;101203.72;4085953;29;20035;-70
2020/12/21 00:07:46;;;;;;;22.65;4.35;;;11.80;99.90;;;11.00;100.00;101206.78;4101970;29;20032;-70
2020/12/21 00:09:47;;;;;;;14.88;3.70;;;11.80;99.90;;;10.96;100.00;101190.41;4086062;29;20087;-70
2020/12/21 00:11:50;;;;;;;15.02;3.65;;;11.80;99.90;;;11.01;100.00;101190.00;4102086;29;20020;-70
2020/12/21 00:13:51;;;;;;;16.65;4.13;;;11.80;99.90;;;10.87;100.00;101191.28;4103081;28;20114;-70
2020/12/21 00:15:51;;;;;;;15.95;3.47;;;11.80;99.90;;;10.85;100.00;101184.50;4121885;28;20034;-70
2020/12/21 00:17:52;;;;;;;16.13;3.22;;;11.70;99.90;;;10.80;100.00;101179.69;4104743;29;20094;-69
2020/12/21 00:19:53;;;;;;;14.85;3.03;;;11.70;99.90;;;10.75;100.00;101152.06;4121956;28;20031;-70
2020/12/21 00:21:54;;;;;;;17.83;4.20;;;11.70;99.90;;;10.70;100.00;101172.78;4121864;28;20038;-70
2020/12/21 00:23:55;;;;;;;14.60;3.25;;;11.60;99.90;;;10.78;100.00;101176.34;4104831;29;20517;-70
2020/12/21 00:25:56;;;;;;;11.38;3.75;;;11.60;99.90;;;10.73;100.00;101168.03;4121684;28;20072;-69
2020/12/21 00:27:57;;;;;;;19.02;3.90;;;11.60;99.90;;;10.80;100.00;101163.00;4104720;29;20034;-70
2020/12/21 00:29:58;;;;;;;12.55;2.55;;;11.60;99.90;;;10.78;100.00;101152.59;4088570;29;20381;-70
2020/12/21 00:31:58;;;;;;;11.95;3.50;;;11.60;99.90;;;10.86;100.00;101151.88;4104523;29;20020;-70
2020/12/21 00:34:03;;;;;;;11.60;2.63;;;11.60;99.90;;;10.83;100.00;101149.53;4088609;29;20042;-69
2020/12/21 00:36:06;;;;;;;14.07;3.08;;;11.70;99.90;;;10.82;100.00;101155.78;4104487;29;20475;-69
2020/12/21 00:38:07;;;;;;;18.73;3.53;;;11.60;99.90;;;10.74;100.00;101135.41;4104537;29;20458;-69
2020/12/21 00:40:08;;;;;;;11.95;2.65;;;11.60;99.90;;;10.79;100.00;101134.94;4088313;29;20490;-70
2020/12/21 00:42:09;;;;;;;17.95;3.40;;;11.60;99.90;;;10.76;100.00;101129.97;4104483;29;20035;-70
2020/12/21 00:44:11;;;;;;;12.75;3.75;;;11.60;99.90;;;10.73;100.00;101135.53;4104532;28;20062;-70
2020/12/21 00:46:17;;;;;;;16.08;4.03;;;11.60;99.90;;;10.78;100.00;101123.56;4088586;29;20032;-69
2020/12/21 00:48:18;;;;;;;12.23;3.67;;;11.60;99.90;;;10.88;100.00;101134.06;4112148;28;20027;-70
2020/12/21 00:50:19;;;;;;;10.40;2.78;;;11.60;99.90;;;10.74;100.00;101121.38;4123583;28;20038;-70
2020/12/21 00:52:19;;;;;;;12.25;2.70;;;11.60;99.90;;;10.73;100.00;101131.09;4119973;28;20058;-70
2020/12/21 00:54:20;;;;;;;13.13;3.75;;;11.60;99.90;;;10.70;100.00;101138.47;4104198;29;20403;-70
2020/12/21 00:56:23;;;;;;;5.85;2.45;;;11.60;99.90;;;10.69;100.00;101135.03;4104339;29;20042;-70
2020/12/21 00:58:24;;;;;;;7.43;2.40;;;11.50;99.90;;;10.63;100.00;101118.94;4121401;28;20029;-70
2020/12/21 01:00:25;;;;;;;8.23;2.53;;;11.50;99.90;;;10.63;100.00;101118.94;4104286;29;20039;-70
2020/12/21 01:02:26;;;;;;;11.90;3.33;;;11.50;99.90;;;10.69;100.00;101135.03;4121353;28;20038;-70
2020/12/21 01:04:27;;;;;;;5.85;2.30;;;11.50;99.90;;;10.66;100.00;101132.69;4104246;28;20031;-70
2020/12/21 01:06:30;;;;;;;10.27;2.72;;;11.50;99.90;;;10.72;100.00;101126.78;4103895;28;20513;-70
2020/12/21 01:08:33;;;;;;;9.00;1.95;;;11.50;99.90;;;10.64;100.00;101133.78;4104292;28;20035;-70
2020/12/21 01:10:33;;;;;;;7.68;2.20;;;11.50;99.90;;;10.72;100.00;101126.78;4119752;28;20098;-70
2020/12/21 01:12:34;;;;;;;12.00;2.88;;;11.50;99.90;;;10.68;100.00;101114.06;4121313;28;20434;-69
2020/12/21 01:14:35;;;;;;;9.45;2.50;;;11.50;99.90;;;10.60;100.00;101114.81;4121285;28;20038;-69
2020/12/21 01:16:36;;;;;;;9.13;2.40;;;11.50;99.90;;;10.63;100.00;101121.59;4088045;29;20026;-70
2020/12/21 01:18:37;;;;;;;8.57;3.08;;;11.50;99.90;;;10.50;100.00;101120.13;4121101;28;20031;-70
2020/12/21 01:20:41;;;;;;;7.70;2.60;;;11.50;99.90;;;10.56;100.00;101110.78;4103857;29;20062;-69
2020/12/21 01:22:42;;;;;;;9.68;2.53;;;11.40;99.90;;;10.57;100.00;101113.25;4120988;28;20041;-70
2020/12/21 01:24:43;;;;;;;11.88;2.22;;;11.40;99.90;;;10.58;100.00;101106.19;4120779;28;20035;-70
2020/12/21 01:26:43;;;;;;;10.35;2.60;;;11.40;99.90;;;10.58;100.00;101090.34;4121048;28;20038;-70
2020/12/21 01:28:44;;;;;;;6.22;2.08;;;11.40;99.90;;;10.68;100.00;101090.31;4120905;28;20561;-70
2020/12/21 01:30:46;;;;;;;8.63;1.98;;;11.50;99.90;;;10.62;100.00;101080.34;4103732;28;20029;-70
2020/12/21 01:32:46;;;;;;;9.20;2.35;;;11.50;99.90;;;10.57;100.00;101072.06;4103772;28;20019;-70
2020/12/21 01:34:47;;;;;;;9.65;2.28;;;11.50;99.90;;;10.60;100.00;101064.69;4120925;28;20030;-70
2020/12/21 01:36:48;;;;;;;11.27;2.35;;;11.50;99.90;;;10.53;100.00;101077.63;4087565;29;20594;-70
2020/12/21 01:38:49;;;;;;;9.60;2.00;;;11.40;99.90;;;10.55;100.00;101070.38;4103681;29;20435;-70
2020/12/21 01:40:50;;;;;;;7.97;2.25;;;11.40;99.90;;;10.64;100.00;101078.38;4120603;28;20074;-70
2020/12/21 01:42:52;;;;;;;5.85;2.13;;;11.40;99.90;;;10.62;100.00;101072.44;4120650;28;20537;-70
2020/12/21 01:44:53;;;;;;;7.55;2.53;;;11.50;99.90;;;10.55;100.00;101065.09;4120718;28;20368;-70
2020/12/21 01:46:53;;;;;;;5.40;2.05;;;11.40;99.90;;;10.57;100.00;101064.97;4119461;28;20038;-69
2020/12/21 01:48:54;;;;;;;7.95;2.67;;;11.50;99.90;;;10.60;100.00;101075.22;4096260;29;20030;-69
2020/12/21 01:50:55;;;;;;;4.38;1.63;;;11.40;99.90;;;10.55;100.00;101062.47;4103435;29;20027;-69
2020/12/21 01:52:56;;;;;;;5.55;1.83;;;11.40;99.90;;;10.60;100.00;101066.47;4120604;28;20026;-69
2020/12/21 01:54:57;;;;;;;5.55;1.92;;;11.40;99.90;;;10.58;100.00;101048.16;4103447;29;20034;-70
2020/12/21 01:56:58;;;;;;;6.38;1.83;;;11.40;99.90;;;10.61;100.00;101074.25;4120534;28;20027;-70
2020/12/21 01:58:59;;;;;;;3.92;1.67;;;11.40;99.90;;;10.60;100.00;101072.59;4103445;29;20031;-70
2020/12/21 02:01:03;;;;;;;4.45;1.80;;;11.40;99.90;;;10.63;100.00;101071.47;4103437;29;20015;-69
2020/12/21 02:03:08;;;;;;;6.20;1.60;;;11.50;99.90;;;10.61;100.00;101073.41;4087397;29;20464;-69
2020/12/21 02:05:09;;;;;;;4.75;1.58;;;11.50;99.90;;;10.65;100.00;101061.59;4103710;28;20529;-70
2020/12/21 02:07:14;;;;;;;9.57;1.67;;;11.50;99.90;;;10.72;100.00;101068.75;4087233;29;20028;-70
2020/12/21 02:09:15;;;;;;;7.00;1.70;;;11.50;99.90;;;10.64;100.00;101065.19;4087213;29;20035;-69
2020/12/21 02:11:16;;;;;;;2.85;1.42;;;11.50;99.90;;;10.67;100.00;101063.09;4120315;28;20066;-70
2020/12/21 02:13:17;;;;;;;4.38;1.40;;;11.50;99.90;;;10.75;100.00;101062.38;4120432;28;20023;-70
2020/12/21 02:15:18;;;;;;;4.68;1.52;;;11.60;99.90;;;10.65;100.00;101048.41;4087301;29;20467;-70
2020/12/21 02:17:18;;;;;;;5.32;1.40;;;11.50;99.90;;;10.61;100.00;101055.78;4120369;28;20026;-70
2020/12/21 02:19:19;;;;;;;3.35;1.30;;;11.50;99.90;;;10.66;100.00;101058.81;4120279;28;20045;-70
2020/12/21 02:21:20;;;;;;;2.17;1.20;;;11.50;99.90;;;10.61;100.00;101063.69;4119983;28;20050;-70
2020/12/21 02:23:21;;;;;;;3.60;1.65;;;11.50;99.90;;;10.69;100.00;101068.22;4120249;28;20379;-70
2020/12/21 02:25:22;;;;;;;3.00;1.00;;;11.50;99.90;;;10.66;100.00;101061.44;4103104;28;20035;-70
2020/12/21 02:27:23;;;;;;;2.10;1.20;;;11.50;99.90;;;10.69;100.00;101055.88;4103057;28;20511;-70
2020/12/21 02:29:24;;;;;;;4.30;1.02;;;11.50;99.90;;;10.68;100.00;101056.84;4120075;28;20043;-70
2020/12/21 02:31:26;;;;;;;4.78;1.17;;;11.50;99.90;;;10.62;100.00;101068.00;4120081;28;20395;-70
2020/12/21 02:33:26;;;;;;;6.55;2.83;;;11.50;99.90;;;10.50;100.00;101043.63;4102821;29;20050;-70
2020/12/21 02:35:33;;;;;;;5.15;1.20;;;11.40;99.90;;;10.54;100.00;101044.16;4102802;28;20058;-69
2020/12/21 02:37:35;;;;;;;4.20;1.77;;;11.40;99.90;;;10.49;100.00;101047.25;4102418;29;20548;-69
2020/12/21 02:39:35;;;;;;;8.05;1.85;;;11.40;99.90;;;10.51;100.00;101050.53;4103015;29;20110;-69
2020/12/21 02:41:36;;;;;;;5.85;1.38;;;11.40;99.90;;;10.55;100.00;101049.28;4119804;28;20391;-69
2020/12/21 02:43:37;;;;;;;4.97;1.58;;;11.40;99.90;;;10.50;100.00;101041.00;4119858;28;20067;-70
2020/12/21 02:45:38;;;;;;;4.82;1.13;;;11.40;99.90;;;10.47;100.00;101035.19;4118731;28;20078;-70
2020/12/21 02:47:39;;;;;;;3.63;1.67;;;11.30;99.90;;;10.48;100.00;101037.66;4104661;28;20035;-69
2020/12/21 02:49:40;;;;;;;4.47;1.20;;;11.40;99.90;;;10.52;100.00;101040.84;4127066;28;20030;-69
2020/12/21 02:51:40;;;;;;;4.53;1.27;;;11.40;99.90;;;10.53;100.00;101034.59;4119710;28;20486;-70
2020/12/21 02:53:41;;;;;;;3.83;1.15;;;11.40;99.90;;;10.57;100.00;101026.22;4102679;28;20019;-70
2020/12/21 02:55:44;;;;;;;6.68;1.15;;;11.40;99.90;;;10.63;100.00;101029.25;4102742;28;20027;-70
2020/12/21 02:57:46;;;;;;;4.60;1.20;;;11.40;99.90;;;10.63;100.00;101014.25;4119862;28;20023;-70
2020/12/21 02:59:47;;;;;;;2.08;1.20;;;11.40;99.90;;;10.61;100.00;101015.38;4086649;29;20040;-70
2020/12/21 03:01:48;;;;;;;5.18;1.73;;;11.40;99.90;;;10.53;100.00;101001.13;4119715;28;20078;-70
2020/12/21 03:03:48;;;;;;;5.18;1.52;;;11.40;99.90;;;10.61;100.00;100995.09;4086872;29;20066;-70
2020/12/21 03:05:49;;;;;;;2.88;1.20;;;11.40;99.90;;;10.63;100.00;100979.13;4119740;28;20035;-70
2020/12/21 03:07:50;;;;;;;4.82;1.15;;;11.40;99.90;;;10.55;100.00;100982.50;4102776;29;20521;-70
2020/12/21 03:09:51;;;;;;;5.70;1.40;;;11.40;99.90;;;10.43;100.00;100976.63;4119381;28;20494;-70
2020/12/21 03:11:52;;;;;;;4.05;1.30;;;11.40;99.90;;;10.49;100.00;100969.91;4102539;29;20031;-69
2020/12/21 03:13:53;;;;;;;2.97;1.45;;;11.40;99.90;;;10.54;100.00;100959.75;4102571;29;20034;-69
2020/12/21 03:15:54;;;;;;;6.25;1.58;;;11.40;99.90;;;10.46;100.00;100959.66;4119669;28;20027;-69
2020/12/21 03:17:55;;;;;;;4.90;1.67;;;11.30;99.90;;;10.46;100.00;100951.75;4102466;28;20019;-69
2020/12/21 03:19:55;;;;;;;5.70;1.52;;;11.30;99.90;;;10.38;100.00;100951.69;4119708;28;20441;-70
2020/12/21 03:21:56;;;;;;;3.42;1.60;;;11.30;99.90;;;10.42;100.00;100942.50;4118195;28;20062;-69
2020/12/21 03:23:58;;;;;;;6.63;1.65;;;11.30;99.90;;;10.52;100.00;100940.59;4102469;29;20030;-70
2020/12/21 03:25:59;;;;;;;9.13;2.17;;;11.30;99.90;;;10.50;100.00;100924.09;4119530;28;20035;-70
2020/12/21 03:28:00;;;;;;;7.50;1.85;;;11.30;99.90;;;10.46;100.00;100933.28;4119577;28;20089;-69
2020/12/21 03:30:01;;;;;;;9.10;2.55;;;11.30;99.90;;;10.40;100.00;100934.72;4118293;28;20082;-70
2020/12/21 03:32:01;;;;;;;7.50;1.83;;;11.30;99.90;;;10.47;100.00;100935.78;4102229;29;20027;-70
2020/12/21 03:34:02;;;;;;;5.68;1.88;;;11.30;99.90;;;10.49;100.00;100928.56;4102341;29;20035;-70
2020/12/21 03:36:03;;;;;;;7.50;1.80;;;11.30;99.90;;;10.44;100.00;100930.00;4102224;29;20039;-70
2020/12/21 03:38:04;;;;;;;10.60;2.10;;;11.30;99.90;;;10.47;100.00;100946.34;4119337;28;20066;-69
2020/12/21 03:40:07;;;;;;;10.43;2.00;;;11.30;99.90;;;10.54;100.00;100941.31;4085977;29;20054;-71
2020/12/21 03:42:08;;;;;;;12.67;2.20;;;11.30;99.90;;;10.47;100.00;100924.41;4101900;29;20055;-70
2020/12/21 03:44:09;;;;;;;8.00;2.63;;;11.30;99.90;;;10.50;100.00;100930.22;4102056;28;20301;-70
2020/12/21 03:46:10;;;;;;;15.63;2.45;;;11.30;99.90;;;10.47;100.00;100937.59;4086038;29;20031;-70
2020/12/21 03:48:14;;;;;;;9.98;2.63;;;11.30;99.90;;;10.47;100.00;100940.22;4125872;28;20033;-70
2020/12/21 03:50:15;;;;;;;8.57;2.15;;;11.30;99.90;;;10.55;100.00;100942.94;4107290;28;20129;-70
2020/12/21 03:52:19;;;;;;;9.75;2.75;;;11.40;99.90;;;10.49;100.00;100927.72;4122112;28;20109;-70
2020/12/21 03:54:20;;;;;;;7.88;2.30;;;11.40;99.90;;;10.52;100.00;100930.06;4089128;29;20035;-69
2020/12/21 03:56:21;;;;;;;10.73;2.13;;;11.40;99.90;;;10.56;100.00;100928.78;4104842;28;20489;-70
2020/12/21 03:58:22;;;;;;;12.65;2.58;;;11.40;99.90;;;10.60;100.00;100924.03;4120952;28;20031;-70
2020/12/21 04:00:23;;;;;;;10.27;2.38;;;11.40;99.90;;;10.54;100.00;100926.28;4104805;28;20559;-70
2020/12/21 04:02:23;;;;;;;8.77;2.70;;;11.40;99.90;;;10.54;100.00;100914.94;4122136;28;20544;-69
2020/12/21 04:04:24;;;;;;;9.82;2.60;;;11.40;99.90;;;10.59;100.00;100923.22;4088902;29;20023;-70
2020/12/21 04:06:25;;;;;;;6.07;2.33;;;11.40;99.90;;;10.55;100.00;100906.84;4104671;28;20485;-70
2020/12/21 04:08:26;;;;;;;7.57;2.20;;;11.40;99.90;;;10.61;100.00;100909.84;4104907;29;20032;-70
2020/12/21 04:10:27;;;;;;;9.35;3.20;;;11.40;99.90;;;10.55;100.00;100921.84;4104874;29;20036;-70
2020/12/21 04:12:28;;;;;;;6.35;1.88;;;11.40;99.90;;;10.60;100.00;100922.22;4121938;28;20387;-70
2020/12/21 04:14:28;;;;;;;10.63;2.70;;;11.40;99.90;;;10.59;100.00;100910.00;4104806;28;20027;-70
2020/12/21 04:16:29;;;;;;;7.43;2.60;;;11.50;99.90;;;10.66;100.00;100924.25;4121761;28;20104;-70
2020/12/21 04:18:30;;;;;;;8.52;2.10;;;11.50;99.90;;;10.62;100.00;100914.16;4121903;28;20050;-70
2020/12/21 04:20:32;;;;;;;5.22;2.08;;;11.40;99.90;;;10.62;100.00;100909.72;4121548;28;20031;-70
2020/12/21 04:22:33;;;;;;;7.38;1.95;;;11.50;99.90;;;10.50;100.00;100910.91;4088603;29;20028;-70
2020/12/21 04:24:34;;;;;;;6.05;2.15;;;11.40;99.90;;;10.62;100.00;100911.50;4121768;28;20042;-70
2020/12/21 04:26:35;;;;;;;5.05;1.73;;;11.50;99.90;;;10.63;100.00;100916.66;4121687;28;20046;-70
2020/12/21 04:28:36;;;;;;;9.50;1.92;;;11.50;99.90;;;10.61;100.00;100888.75;4120476;28;20086;-70
2020/12/21 04:30:37;;;;;;;5.35;1.58;;;11.50;99.90;;;10.64;100.00;100888.44;4121626;28;20090;-70
2020/12/21 04:32:38;;;;;;;6.90;2.35;;;11.50;99.90;;;10.70;100.00;100895.75;4104272;28;20019;-70
2020/12/21 04:34:39;;;;;;;4.28;1.55;;;11.50;99.90;;;10.68;100.00;100895.91;4104515;28;20032;-70
2020/12/21 04:36:39;;;;;;;6.07;2.05;;;11.50;99.90;;;10.70;100.00;100888.66;4088304;29;20079;-70
2020/12/21 04:38:42;;;;;;;4.47;1.40;;;11.50;99.90;;;10.73;100.00;100898.06;4104307;28;20027;-70
2020/12/21 04:40:49;;;;;;;4.80;1.52;;;11.50;99.90;;;10.68;100.00;100914.38;4104052;28;20082;-70
2020/12/21 04:42:51;;;;;;;5.40;1.38;;;11.50;99.90;;;10.74;100.00;100879.47;4104294;28;20430;-70
2020/12/21 04:44:53;;;;;;;5.72;1.92;;;11.50;99.90;;;10.76;100.00;100895.97;4104244;28;20035;-70
2020/12/21 04:46:55;;;;;;;5.90;2.42;;;11.60;99.90;;;10.74;100.00;100897.09;4104210;28;20059;-70
2020/12/21 04:48:58;;;;;;;5.13;1.30;;;11.60;99.90;;;10.77;100.00;100884.44;4088005;29;20032;-70
2020/12/21 04:50:59;;;;;;;3.33;1.40;;;11.60;99.90;;;10.79;100.00;100886.91;4088053;29;20225;-70
2020/12/21 04:53:02;;;;;;;3.38;1.48;;;11.60;99.90;;;10.80;100.00;100878.84;4088214;29;20408;-70
2020/12/21 04:55:03;;;;;;;3.28;1.20;;;11.60;99.90;;;10.80;100.00;100883.31;4104230;28;20023;-70
2020/12/21 04:57:04;;;;;;;2.97;1.20;;;11.60;99.90;;;10.80;100.00;100876.22;4103968;29;20059;-70
2020/12/21 04:59:05;;;;;;;5.30;1.48;;;11.60;99.90;;;10.81;100.00;100869.94;4103368;28;20036;-70
2020/12/21 05:01:06;;;;;;;3.47;1.30;;;11.60;99.90;;;10.80;100.00;100873.56;4103807;29;20036;-70
2020/12/21 05:03:07;;;;;;;2.67;1.30;;;11.60;99.90;;;10.84;100.00;100885.47;4104048;29;20015;-70
2020/12/21 05:05:08;;;;;;;2.22;1.30;;;11.60;99.90;;;10.85;100.00;100879.22;4088000;29;20084;-70
2020/12/21 05:07:09;;;;;;;2.58;1.85;;;11.60;99.90;;;10.88;100.00;100876.25;4103819;29;20601;-70
2020/12/21 05:09:10;;;;;;;3.25;1.20;;;11.60;99.90;;;10.90;100.00;100866.38;4120976;28;20042;-70
2020/12/21 05:11:11;;;;;;;2.95;0.90;;;11.70;99.90;;;10.95;100.00;100879.13;4121148;28;20023;-70
2020/12/21 05:13:13;;;;;;;3.65;1.05;;;11.70;99.90;;;10.90;100.00;100878.75;4103775;29;20082;-69
2020/12/21 05:15:20;;;;;;;4.93;1.50;;;11.80;99.90;;;10.80;100.00;100868.31;4103959;28;20019;-70
2020/12/21 05:17:22;;;;;;;4.22;1.05;;;11.70;99.90;;;10.91;100.00;100873.31;4103449;29;20031;-70
2020/12/21 05:19:23;;;;;;;4.63;1.17;;;11.70;99.90;;;10.92;100.00;100887.34;4120988;28;20080;-70
2020/12/21 05:21:31;;;;;;;4.45;1.42;;;11.70;99.90;;;10.94;100.00;100880.09;4120584;28;20304;-70
2020/12/21 05:23:33;;;;;;;4.43;1.20;;;11.70;99.90;;;10.91;100.00;100883.03;4103613;28;20047;-70
2020/12/21 05:25:34;;;;;;;8.20;1.30;;;11.80;99.90;;;10.91;100.00;100891.78;4103588;28;20402;-70
2020/12/21 05:27:35;;;;;;;3.53;1.25;;;11.80;99.90;;;10.91;100.00;100870.69;4103596;29;20055;-70
2020/12/21 05:29:36;;;;;;;3.05;1.30;;;11.70;99.90;;;10.91;100.00;100867.22;4087699;29;20082;-70
2020/12/21 05:31:48;;;;;;;6.22;1.25;;;11.70;99.90;;;10.89;100.00;100862.09;4120730;28;20106;-70
2020/12/21 05:33:49;;;;;;;3.55;1.00;;;11.70;99.90;;;10.92;100.00;100869.72;4103455;28;20205;-70
2020/12/21 05:35:51;;;;;;;3.58;1.45;;;11.80;99.90;;;10.97;100.00;100859.50;4103157;28;20027;-70
2020/12/21 05:37:52;;;;;;;4.30;1.10;;;11.70;99.90;;;11.09;100.00;100865.34;4103673;28;20035;-70
2020/12/21 05:39:56;;;;;;;8.63;2.10;;;11.80;99.90;;;11.05;100.00;100866.66;4103734;28;20048;-69
2020/12/21 05:42:11;;;;;;;5.82;1.48;;;11.80;99.90;;;11.13;100.00;100873.78;4087543;29;20487;-70
2020/12/21 05:44:12;;;;;;;3.75;1.00;;;11.80;99.90;;;11.11;100.00;100866.00;4107636;28;20031;-70
2020/12/21 05:46:17;;;;;;;5.32;1.42;;;11.90;99.90;;;11.15;100.00;100858.59;4103636;29;20059;-70
2020/12/21 05:48:19;;;;;;;4.70;1.17;;;11.90;99.90;;;11.10;100.00;100862.56;4110767;28;20030;-70
2020/12/21 05:50:21;;;;;;;3.80;1.20;;;12.00;99.90;;;11.10;100.00;100846.72;4121252;28;20031;-70
2020/12/21 05:52:41;;;;;;;4.35;1.10;;;11.90;99.90;;;11.15;100.00;100851.50;4087322;29;20024;-70
2020/12/21 05:54:43;;;;;;;5.43;1.85;;;11.90;99.90;;;11.15;100.00;100848.03;4087485;29;20491;-70
2020/12/21 05:56:45;;;;;;;2.47;1.25;;;11.90;99.90;;;11.17;100.00;100861.94;4103303;29;20031;-70
2020/12/21 05:58:46;;;;;;;3.80;1.13;;;11.90;99.90;;;11.20;100.00;100864.25;4103425;29;20403;-70
2020/12/21 06:00:47;;;;;;;2.30;1.08;;;11.90;99.90;;;11.21;100.00;100864.09;4103485;29;20075;-70
2020/12/21 06:02:55;;;;;;;3.22;1.05;;;12.00;99.90;;;11.24;100.00;100863.78;4103406;29;20035;-70
2020/12/21 06:05:16;;;;;;;2.25;1.00;;;12.00;99.90;;;11.22;100.00;100867.56;4103573;28;20034;-70
2020/12/21 06:07:22;;;;;;;4.95;1.00;;;12.00;99.90;;;11.21;100.00;100856.16;4103259;28;20035;-70
2020/12/21 06:09:28;;;;;;;3.70;0.93;;;12.00;99.90;;;11.36;100.00;100859.03;4102886;29;20031;-70
2020/12/21 06:11:34;;;;;;;1.20;0.80;;;12.10;99.90;;;11.25;100.00;100843.47;4102411;28;20029;-70
2020/12/21 06:13:43;;;;;;;2.80;0.98;;;12.10;99.90;;;11.32;100.00;100865.66;4103244;28;20062;-70
2020/12/21 06:15:45;;;;;;;2.28;0.80;;;12.10;99.90;;;11.36;100.00;100885.47;4103739;28;20027;-70
2020/12/21 06:17:46;;;;;;;3.08;0.93;;;12.10;99.90;;;11.41;100.00;100886.63;4103143;28;20049;-70
2020/12/21 06:19:47;;;;;;;3.28;1.08;;;12.20;99.90;;;11.37;100.00;100879.19;4102925;29;20023;-70
2020/12/21 06:21:54;;;;;;;3.50;1.00;;;12.20;99.90;;;11.47;100.00;100861.41;4119907;28;20030;-70
2020/12/21 06:23:56;;;;;;;2.55;0.95;;;12.20;99.90;;;11.44;100.00;100854.63;4120229;28;20035;-70
2020/12/21 06:26:13;;;;;;;2.63;1.10;;;12.30;99.90;;;11.51;100.00;100866.22;4102697;29;20039;-70
2020/12/21 06:28:14;;;;;;;4.88;1.17;;;12.20;99.90;;;11.46;100.00;100859.75;4103123;29;20023;-70
2020/12/21 06:30:16;;;;;;;3.22;1.10;;;12.30;99.90;;;11.50;100.00;100851.34;4102985;29;20054;-69
2020/12/21 06:32:17;;;;;;;2.78;0.90;;;12.30;99.90;;;11.53;100.00;100844.91;4102912;29;20023;-69
2020/12/21 06:34:39;;;;;;;4.10;1.05;;;12.30;99.90;;;11.46;100.00;100843.91;4102813;29;20098;-70
2020/12/21 06:36:40;;;;;;;2.25;1.23;;;12.30;99.90;;;11.59;100.00;100858.31;4119972;28;20027;-70
2020/12/21 06:38:52;;;;;;;2.33;1.27;;;12.30;99.90;;;11.58;100.00;100853.22;4102922;29;20023;-70
2020/12/21 06:40:53;;;;;;;6.03;2.67;;;12.30;99.90;;;11.62;100.00;100859.81;4119946;28;20577;-70
2020/12/21 06:42:54;;;;;;;3.60;1.00;;;12.40;99.90;;;11.65;100.00;100868.25;4102771;29;20082;-70
2020/12/21 06:44:57;;;;;;;2.47;1.00;;;12.40;99.90;;;11.61;100.00;100855.53;4119851;28;20031;-70
2020/12/21 06:46:59;;;;;;;2.20;1.10;;;12.40;99.90;;;11.62;100.00;100854.53;4102740;28;20442;-70
2020/12/21 06:49:13;;;;;;;1.90;0.95;;;12.40;99.90;;;11.65;100.00;100870.06;4086627;29;20036;-69
2020/12/21 06:51:14;;;;;;;2.35;0.90;;;12.40;99.90;;;11.65;100.00;100855.03;4102732;28;20031;-70
2020/12/21 06:53:15;;;;;;;4.28;0.90;;;12.40;99.90;;;11.69;100.00;100868.75;4086585;29;20028;-70
2020/12/21 06:55:16;;;;;;;2.00;1.23;;;12.50;99.90;;;11.67;100.00;100852.25;4102620;28;20558;-70
2020/12/21 06:57:17;;;;;;;2.78;1.08;;;12.40;99.90;;;11.65;100.00;100854.19;4102636;29;20039;-70
2020/12/21 06:59:23;;;;;;;5.22;1.52;;;12.50;99.90;;;11.73;100.00;100856.94;4119736;28;20034;-70
2020/12/21 07:01:28;;;;;;;5.00;0.90;;;12.50;99.90;;;11.74;100.00;100861.19;4086875;29;20047;-70
2020/12/21 07:03:29;;;;;;;3.63;0.95;;;12.60;99.90;;;11.83;100.00;100857.59;4119685;28;20039;-70
2020/12/21 07:05:30;;;;;;;4.47;0.90;;;12.60;99.90;;;11.85;100.00;100860.09;4102456;29;20073;-70
2020/12/21 07:07:31;;;;;;;3.13;0.98;;;12.60;99.90;;;11.83;100.00;100862.88;4086604;29;20042;-70
2020/12/21 07:09:37;;;;;;;4.00;1.20;;;12.60;99.90;;;11.85;100.00;100866.22;4102442;29;20035;-70
2020/12/21 07:11:42;;;;;;;1.38;0.80;;;12.60;99.90;;;11.85;100.00;100860.94;4086723;29;20526;-70
2020/12/21 07:13:45;;;;;;;4.95;0.95;;;12.60;99.90;;;11.88;100.00;100852.69;4103014;28;20405;-70
2020/12/21 07:15:45;;;;;;;1.27;0.80;;;12.70;99.90;;;12.04;100.00;100863.28;4102811;29;20028;-70
2020/12/21 07:17:46;;;;;;;2.88;0.90;;;12.70;99.90;;;12.01;100.00;100860.13;4102402;29;20036;-70
2020/12/21 07:19:47;;;;;;;2.92;1.05;;;12.80;99.90;;;12.00;100.00;100854.03;4102572;29;20090;-70
2020/12/21 07:21:51;;;;;;;3.10;0.82;;;12.80;99.90;;;12.07;100.00;100873.53;4102439;28;20082;-70
2020/12/21 07:23:55;;;;;;;3.80;1.07;;;12.80;99.90;;;12.10;100.00;100869.72;4093195;28;20039;-70
2020/12/21 07:25:57;;;;;;;1.20;0.80;;;12.80;99.90;;;12.07;100.00;100865.59;4137402;28;20108;-70
2020/12/21 07:27:58;;;;;;;2.00;0.80;;;12.80;99.90;;;12.15;100.00;100881.50;4133125;28;20532;-70
2020/12/21 07:30:10;;;;;;;3.67;1.05;;;12.90;99.90;;;12.07;100.00;100860.28;4105982;28;20031;-70
2020/12/21 07:32:11;;;;;;;2.75;1.05;;;12.90;99.90;;;12.15;100.00;100862.16;4126107;28;20422;-72
2020/12/21 07:34:13;;;;;;;3.42;0.95;;;12.90;99.90;;;12.17;100.00;100868.09;4103870;28;20047;-71
2020/12/21 07:36:14;;;;;;;2.13;0.95;;;12.90;99.90;;;12.23;100.00;100878.00;4105104;28;20054;-71
2020/12/21 07:38:14;;;;;;;3.13;1.15;;;12.90;99.90;;;12.29;100.00;100871.25;4105417;28;20123;-71
2020/12/21 07:40:20;;;;;;;4.82;1.52;;;13.00;99.90;;;12.27;100.00;100866.13;4105135;28;20035;-70
2020/12/21 07:42:23;;;;;;;2.03;1.00;;;13.00;99.90;;;12.32;100.00;100866.47;4105218;28;20031;-70
2020/12/21 07:44:34;;;;;;;1.23;0.80;;;13.00;99.90;;;12.41;100.00;100889.28;4089277;29;20079;-70
2020/12/21 07:46:45;;;;;;;2.22;1.00;;;13.10;99.90;;;12.41;100.00;100885.81;4119452;28;20967;-72
2020/12/21 07:48:46;;;;;;;2.67;1.10;;;13.10;99.90;;;12.42;100.00;100890.13;4130265;28;20031;-71
2020/12/21 07:50:48;;;;;;;2.83;0.88;;;13.10;99.90;;;12.42;100.00;100884.81;4088473;29;20035;-71
2020/12/21 07:52:49;;;;;;;1.48;0.90;;;13.20;99.90;;;12.48;100.00;100885.00;4104992;29;20112;-71
2020/12/21 07:54:50;;;;;;;2.47;0.90;;;13.20;99.90;;;12.42;100.00;100875.06;4088949;29;20205;-70
2020/12/21 07:57:00;;;;;;;1.42;0.88;;;13.20;99.90;;;12.45;100.00;100881.84;4104712;29;20035;-70
2020/12/21 07:59:19;;;;;;;2.45;1.02;;;13.20;99.90;;;12.46;100.00;100886.13;4088882;29;20035;-70
2020/12/21 08:01:22;;;;;;;3.08;1.17;;;13.30;99.90;;;12.51;100.00;100892.59;4104369;29;20050;-71
2020/12/21 08:03:25;;;;;;;2.53;0.93;;;13.20;99.90;;;12.57;100.00;100899.06;4086546;29;20178;-71
2020/12/21 08:05:26;;;;;;;2.95;1.10;;;13.30;99.90;;;12.52;100.00;100890.75;4103166;28;20114;-71
2020/12/21 08:07:29;;;;;;;4.03;1.15;;;13.30;99.90;;;12.56;100.00;100903.50;4103543;29;20042;-71
2020/12/21 08:09:29;;;;;;;2.63;2.15;;;13.30;99.90;;;12.59;100.00;100900.53;4119963;28;20110;-70
2020/12/21 08:11:31;;;;;;;3.38;1.60;;;13.30;99.90;;;12.68;100.00;100904.00;4119613;28;20023;-71
2020/12/21 08:13:33;;;;;;;3.03;1.27;;;13.40;99.90;;;12.66;100.00;100913.94;4121380;28;20394;-71
2020/12/21 08:15:33;;;;;;;2.78;1.15;;;13.40;99.90;;;12.71;100.00;100930.16;4121515;28;20104;-71
2020/12/21 08:17:35;;;;;;;3.55;1.15;;;13.50;99.90;;;12.65;100.00;100923.69;4088369;29;20035;-71
2020/12/21 08:20:01;;;;;;;2.58;1.38;;;13.40;99.90;;;12.72;100.00;100942.41;4104178;29;20032;-72
2020/12/21 08:22:04;;;;;;;3.90;1.60;;;13.50;99.90;;;12.67;100.00;100936.75;4121001;28;20503;-72
2020/12/21 08:24:06;;;;;;;6.32;1.30;;;13.50;99.90;;;12.63;100.00;100938.09;4088473;29;20035;-71